sensor_id;sensor_type;location;lat;lon;timestamp;pressure;altitude;pressure_sealevel;temperature;humidity
60427;BME280;46274;47.168;27.604;2023-02-28T00:02:26;101181.38;;;-0.09;88.18
60427;BME280;46274;47.168;27.604;2023-02-28T00:08:29;101187.09;;;0.01;87.76
60427;BME280;46274;47.168;27.604;2023-02-28T00:14:31;101203.25;;;-0.03;88.96
60427;BME280;46274;47.168;27.604;2023-02-28T00:20:33;101206.19;;;0.09;88.06
60427;BME280;46274;47.168;27.604;2023-02-28T00:26:37;101228.94;;;0.32;87.53
60427;BME280;46274;47.168;27.604;2023-02-28T00:32:39;101215.25;;;0.22;87.31
60427;BME280;46274;47.168;27.604;2023-02-28T00:38:42;101178.94;;;0.04;86.72
60427;BME280;46274;47.168;27.604;2023-02-28T00:44:44;101273.25;;;0.34;86.81
60427;BME280;46274;47.168;27.604;2023-02-28T00:50:49;101140.63;;;-0.62;87.22
60427;BME280;46274;47.168;27.604;2023-02-28T00:56:52;101289.88;;;0.39;86.71
60427;BME280;46274;47.168;27.604;2023-02-28T01:02:54;101271.00;;;0.09;87.75
60427;BME280;46274;47.168;27.604;2023-02-28T01:08:58;101284.63;;;0.20;87.83
60427;BME280;46274;47.168;27.604;2023-02-28T01:15:00;101258.03;;;0.36;86.76
60427;BME280;46274;47.168;27.604;2023-02-28T01:21:05;101263.03;;;0.42;86.57
60427;BME280;46274;47.168;27.604;2023-02-28T01:27:07;101239.25;;;0.22;86.90
60427;BME280;46274;47.168;27.604;2023-02-28T01:33:10;101176.09;;;0.07;85.87
60427;BME280;46274;47.168;27.604;2023-02-28T01:39:12;101270.59;;;0.34;86.61
60427;BME280;46274;47.168;27.604;2023-02-28T01:45:29;101263.69;;;0.30;86.75
60427;BME280;46274;47.168;27.604;2023-02-28T01:51:37;101268.38;;;0.42;86.46
60427;BME280;46274;47.168;27.604;2023-02-28T01:57:46;101176.31;;;-0.31;86.60
60427;BME280;46274;47.168;27.604;2023-02-28T02:03:56;101269.00;;;0.30;86.80
60427;BME280;46274;47.168;27.604;2023-02-28T02:10:05;101264.81;;;0.09;87.76
60427;BME280;46274;47.168;27.604;2023-02-28T02:16:31;101212.66;;;-0.30;87.88
60427;BME280;46274;47.168;27.604;2023-02-28T02:29:22;101284.25;;;0.11;87.09
60427;BME280;46274;47.168;27.604;2023-02-28T02:36:18;101293.34;;;0.07;87.13
60427;BME280;46274;47.168;27.604;2023-02-28T02:41:56;101272.66;;;-0.06;87.13
60427;BME280;46274;47.168;27.604;2023-02-28T02:48:02;101284.94;;;-0.03;86.80
60427;BME280;46274;47.168;27.604;2023-02-28T02:54:10;101280.50;;;-0.03;86.87
60427;BME280;46274;47.168;27.604;2023-02-28T03:00:20;101294.53;;;0.18;86.39
60427;BME280;46274;47.168;27.604;2023-02-28T03:06:25;101195.59;;;-0.61;86.59
60427;BME280;46274;47.168;27.604;2023-02-28T03:12:38;101315.44;;;0.09;86.07
60427;BME280;46274;47.168;27.604;2023-02-28T03:19:17;101314.50;;;-0.08;87.42
60427;BME280;46274;47.168;27.604;2023-02-28T03:25:47;101288.97;;;-0.12;86.29
60427;BME280;46274;47.168;27.604;2023-02-28T03:32:08;101203.59;;;-0.43;85.92
60427;BME280;46274;47.168;27.604;2023-02-28T03:38:25;101317.19;;;-0.08;86.90
60427;BME280;46274;47.168;27.604;2023-02-28T03:44:33;101303.88;;;-0.08;86.95
60427;BME280;46274;47.168;27.604;2023-02-28T03:50:40;101306.03;;;-0.16;87.08
60427;BME280;46274;47.168;27.604;2023-02-28T03:56:54;101250.09;;;-0.51;86.69
60427;BME280;46274;47.168;27.604;2023-02-28T04:02:59;101225.31;;;-0.70;86.99
60427;BME280;46274;47.168;27.604;2023-02-28T04:09:03;101315.53;;;-0.10;86.56
60427;BME280;46274;47.168;27.604;2023-02-28T04:15:07;101307.63;;;0.06;85.92
60427;BME280;46274;47.168;27.604;2023-02-28T04:21:11;101316.53;;;0.05;85.70
60427;BME280;46274;47.168;27.604;2023-02-28T04:27:14;101320.47;;;-0.03;85.81
60427;BME280;46274;47.168;27.604;2023-02-28T04:33:17;101280.41;;;-0.18;85.11
60427;BME280;46274;47.168;27.604;2023-02-28T04:39:20;101309.19;;;-0.08;85.68
60427;BME280;46274;47.168;27.604;2023-02-28T04:45:22;101315.75;;;-0.15;85.54
60427;BME280;46274;47.168;27.604;2023-02-28T04:51:24;101317.88;;;-0.04;85.38
60427;BME280;46274;47.168;27.604;2023-02-28T04:57:27;101323.56;;;0.23;84.24
60427;BME280;46274;47.168;27.604;2023-02-28T05:03:29;101256.28;;;-0.33;84.25
60427;BME280;46274;47.168;27.604;2023-02-28T05:09:31;101332.16;;;-0.05;84.72
60427;BME280;46274;47.168;27.604;2023-02-28T05:15:35;101322.97;;;-0.17;85.01
60427;BME280;46274;47.168;27.604;2023-02-28T05:21:40;101341.59;;;-0.17;85.21
60427;BME280;46274;47.168;27.604;2023-02-28T05:27:42;101335.97;;;-0.28;85.58
60427;BME280;46274;47.168;27.604;2023-02-28T05:33:44;101304.13;;;-0.49;85.48
60427;BME280;46274;47.168;27.604;2023-02-28T05:39:47;101327.63;;;-0.39;85.58
60427;BME280;46274;47.168;27.604;2023-02-28T05:45:49;101352.56;;;-0.23;85.62
60427;BME280;46274;47.168;27.604;2023-02-28T05:51:52;101349.50;;;-0.33;86.26
60427;BME280;46274;47.168;27.604;2023-02-28T05:57:54;101298.00;;;-0.51;85.53
60427;BME280;46274;47.168;27.604;2023-02-28T06:03:58;101362.44;;;-0.25;85.99
60427;BME280;46274;47.168;27.604;2023-02-28T06:10:00;101293.75;;;-0.72;86.08
60427;BME280;46274;47.168;27.604;2023-02-28T06:16:02;101253.63;;;-0.86;86.07
60427;BME280;46274;47.168;27.604;2023-02-28T06:22:04;101354.09;;;-0.36;86.18
60427;BME280;46274;47.168;27.604;2023-02-28T06:28:06;101336.41;;;-0.37;85.69
60427;BME280;46274;47.168;27.604;2023-02-28T06:34:08;101266.19;;;-0.71;85.52
60427;BME280;46274;47.168;27.604;2023-02-28T06:40:11;101342.00;;;-0.25;85.70
60427;BME280;46274;47.168;27.604;2023-02-28T06:46:15;101345.97;;;-0.16;85.63
60427;BME280;46274;47.168;27.604;2023-02-28T06:52:17;101337.50;;;-0.24;86.10
60427;BME280;46274;47.168;27.604;2023-02-28T06:58:19;101376.03;;;0.22;85.06
60427;BME280;46274;47.168;27.604;2023-02-28T07:04:21;101287.13;;;-0.29;84.58
60427;BME280;46274;47.168;27.604;2023-02-28T07:10:23;101365.94;;;0.47;83.59
60427;BME280;46274;47.168;27.604;2023-02-28T07:16:25;101385.50;;;0.80;83.00
60427;BME280;46274;47.168;27.604;2023-02-28T07:22:28;101390.91;;;0.79;83.30
60427;BME280;46274;47.168;27.604;2023-02-28T07:28:30;101202.63;;;-0.25;82.75
60427;BME280;46274;47.168;27.604;2023-02-28T07:34:32;101334.56;;;0.34;84.17
60427;BME280;46274;47.168;27.604;2023-02-28T07:40:34;101384.94;;;0.74;83.75
60427;BME280;46274;47.168;27.604;2023-02-28T07:46:37;101341.88;;;0.64;83.78
60427;BME280;46274;47.168;27.604;2023-02-28T07:52:39;101376.66;;;0.62;84.32
60427;BME280;46274;47.168;27.604;2023-02-28T07:58:41;101323.56;;;0.23;84.50
60427;BME280;46274;47.168;27.604;2023-02-28T08:04:43;101392.06;;;0.91;84.06
60427;BME280;46274;47.168;27.604;2023-02-28T08:10:45;101346.22;;;0.82;83.23
60427;BME280;46274;47.168;27.604;2023-02-28T08:16:47;101353.41;;;0.64;83.82
60427;BME280;46274;47.168;27.604;2023-02-28T08:22:49;101405.84;;;0.99;83.85
60427;BME280;46274;47.168;27.604;2023-02-28T08:28:52;101422.78;;;1.31;82.84
60427;BME280;46274;47.168;27.604;2023-02-28T08:34:56;101393.16;;;1.36;82.15
60427;BME280;46274;47.168;27.604;2023-02-28T08:41:04;101427.03;;;1.67;81.57
60427;BME280;46274;47.168;27.604;2023-02-28T08:47:08;101436.34;;;1.75;81.34
60427;BME280;46274;47.168;27.604;2023-02-28T08:53:10;101340.44;;;1.39;81.43
60427;BME280;46274;47.168;27.604;2023-02-28T08:59:12;101406.97;;;1.91;80.86
60427;BME280;46274;47.168;27.604;2023-02-28T09:05:14;101414.91;;;1.61;80.66
60427;BME280;46274;47.168;27.604;2023-02-28T09:11:18;101426.78;;;1.71;80.66
60427;BME280;46274;47.168;27.604;2023-02-28T09:17:20;101403.69;;;1.55;79.95
60427;BME280;46274;47.168;27.604;2023-02-28T09:23:22;101402.81;;;1.86;80.04
60427;BME280;46274;47.168;27.604;2023-02-28T09:29:24;101408.44;;;2.27;79.59
60427;BME280;46274;47.168;27.604;2023-02-28T09:35:27;101437.72;;;1.35;79.28
60427;BME280;46274;47.168;27.604;2023-02-28T09:41:36;101430.91;;;1.93;78.40
60427;BME280;46274;47.168;27.604;2023-02-28T09:47:45;101429.34;;;1.57;78.67
60427;BME280;46274;47.168;27.604;2023-02-28T09:53:48;101361.72;;;1.57;79.08
60427;BME280;46274;47.168;27.604;2023-02-28T10:06:25;101380.00;;;2.10;78.31
60427;BME280;46274;47.168;27.604;2023-02-28T10:12:29;101398.53;;;2.13;78.46
60427;BME280;46274;47.168;27.604;2023-02-28T10:18:43;101386.31;;;2.39;78.48
60427;BME280;46274;47.168;27.604;2023-02-28T10:24:53;101402.81;;;2.32;78.67
60427;BME280;46274;47.168;27.604;2023-02-28T10:30:55;101361.06;;;1.99;78.43
60427;BME280;46274;47.168;27.604;2023-02-28T10:36:58;101378.22;;;2.55;77.46
60427;BME280;46274;47.168;27.604;2023-02-28T10:49:23;101363.50;;;2.48;77.52
60427;BME280;46274;47.168;27.604;2023-02-28T10:55:25;101356.31;;;2.04;77.05
60427;BME280;46274;47.168;27.604;2023-02-28T11:07:40;101358.97;;;1.74;78.18
60427;BME280;46274;47.168;27.604;2023-02-28T11:13:56;101371.53;;;2.62;76.92
60427;BME280;46274;47.168;27.604;2023-02-28T11:20:05;101170.75;;;1.34;76.85
60427;BME280;46274;47.168;27.604;2023-02-28T11:26:09;101371.53;;;2.62;77.44
60427;BME280;46274;47.168;27.604;2023-02-28T11:32:21;101363.91;;;2.71;77.26
60427;BME280;46274;47.168;27.604;2023-02-28T11:38:25;101266.59;;;2.14;77.19
60427;BME280;46274;47.168;27.604;2023-02-28T11:44:42;101361.91;;;2.89;76.88
60427;BME280;46274;47.168;27.604;2023-02-28T11:57:25;101346.53;;;2.64;77.04
60427;BME280;46274;47.168;27.604;2023-02-28T12:10:21;101333.63;;;2.56;76.44
60427;BME280;46274;47.168;27.604;2023-02-28T12:29:53;101326.63;;;2.96;76.20
60427;BME280;46274;47.168;27.604;2023-02-28T12:35:59;101338.88;;;2.72;76.78
60427;BME280;46274;47.168;27.604;2023-02-28T12:42:45;101168.03;;;1.94;76.26
60427;BME280;46274;47.168;27.604;2023-02-28T12:48:55;101340.03;;;2.82;76.38
60427;BME280;46274;47.168;27.604;2023-02-28T13:08:20;101332.56;;;2.58;76.58
60427;BME280;46274;47.168;27.604;2023-02-28T13:20:37;101321.75;;;2.60;76.52
60427;BME280;46274;47.168;27.604;2023-02-28T13:33:22;101124.78;;;1.28;76.88
60427;BME280;46274;47.168;27.604;2023-02-28T13:46:06;101190.50;;;1.31;77.96
60427;BME280;46274;47.168;27.604;2023-02-28T13:52:22;101294.28;;;2.13;77.55
60427;BME280;46274;47.168;27.604;2023-02-28T13:58:51;101308.59;;;2.12;78.07
60427;BME280;46274;47.168;27.604;2023-02-28T14:05:10;101297.84;;;2.28;76.89
60427;BME280;46274;47.168;27.604;2023-02-28T14:11:32;101203.88;;;1.75;76.64
60427;BME280;46274;47.168;27.604;2023-02-28T14:17:42;101295.09;;;2.30;77.06
60427;BME280;46274;47.168;27.604;2023-02-28T14:24:03;101294.78;;;2.34;76.54
60427;BME280;46274;47.168;27.604;2023-02-28T14:30:40;101291.91;;;2.37;76.84
60427;BME280;46274;47.168;27.604;2023-02-28T14:36:47;101287.75;;;2.03;77.23
60427;BME280;46274;47.168;27.604;2023-02-28T14:43:04;101229.06;;;1.71;76.99
60427;BME280;46274;47.168;27.604;2023-02-28T14:49:15;101283.72;;;1.96;76.67
60427;BME280;46274;47.168;27.604;2023-02-28T14:55:24;101290.56;;;2.16;76.91
60427;BME280;46274;47.168;27.604;2023-02-28T15:01:27;101282.22;;;2.06;77.03
60427;BME280;46274;47.168;27.604;2023-02-28T15:07:29;101262.13;;;1.85;77.02
60427;BME280;46274;47.168;27.604;2023-02-28T15:13:50;101290.56;;;1.86;77.80
60427;BME280;46274;47.168;27.604;2023-02-28T15:19:54;101287.94;;;2.00;77.42
60427;BME280;46274;47.168;27.604;2023-02-28T15:25:58;101278.97;;;2.01;77.26
60427;BME280;46274;47.168;27.604;2023-02-28T15:32:04;101275.34;;;2.02;77.15
60427;BME280;46274;47.168;27.604;2023-02-28T15:38:25;101268.84;;;1.92;77.42
60427;BME280;46274;47.168;27.604;2023-02-28T15:44:33;101267.34;;;2.02;77.17
60427;BME280;46274;47.168;27.604;2023-02-28T15:50:40;101270.34;;;1.96;76.89
60427;BME280;46274;47.168;27.604;2023-02-28T15:56:45;101226.19;;;1.60;77.40
60427;BME280;46274;47.168;27.604;2023-02-28T16:02:48;101275.69;;;1.96;77.11
60427;BME280;46274;47.168;27.604;2023-02-28T16:08:51;101273.66;;;1.85;77.16
60427;BME280;46274;47.168;27.604;2023-02-28T16:14:57;101281.88;;;1.82;76.96
60427;BME280;46274;47.168;27.604;2023-02-28T16:21:00;101162.91;;;1.00;76.94
60427;BME280;46274;47.168;27.604;2023-02-28T16:27:02;101292.31;;;1.87;77.15
60427;BME280;46274;47.168;27.604;2023-02-28T16:33:05;101294.53;;;1.94;76.72
60427;BME280;46274;47.168;27.604;2023-02-28T16:39:07;101291.91;;;1.79;77.36
60427;BME280;46274;47.168;27.604;2023-02-28T16:45:30;101294.13;;;1.86;76.86
60427;BME280;46274;47.168;27.604;2023-02-28T16:51:32;101259.00;;;1.62;77.00
60427;BME280;46274;47.168;27.604;2023-02-28T16:57:36;101297.97;;;1.81;77.08
60427;BME280;46274;47.168;27.604;2023-02-28T17:03:40;101287.25;;;1.66;77.34
60427;BME280;46274;47.168;27.604;2023-02-28T17:09:43;101287.09;;;1.53;77.68
60427;BME280;46274;47.168;27.604;2023-02-28T17:15:47;101283.03;;;1.62;77.92
60427;BME280;46274;47.168;27.604;2023-02-28T17:21:50;101277.25;;;1.70;77.23
60427;BME280;46274;47.168;27.604;2023-02-28T17:27:52;101278.69;;;1.75;76.99
60427;BME280;46274;47.168;27.604;2023-02-28T17:33:54;101283.88;;;1.79;76.86
60427;BME280;46274;47.168;27.604;2023-02-28T17:39:57;101246.53;;;1.63;76.73
60427;BME280;46274;47.168;27.604;2023-02-28T17:45:59;101259.97;;;1.75;76.70
60427;BME280;46274;47.168;27.604;2023-02-28T17:52:01;101204.75;;;1.46;76.67
60427;BME280;46274;47.168;27.604;2023-02-28T17:58:04;101229.78;;;1.59;77.02
60427;BME280;46274;47.168;27.604;2023-02-28T18:04:06;101265.97;;;1.65;77.48
60427;BME280;46274;47.168;27.604;2023-02-28T18:10:17;101269.38;;;1.52;77.90
60427;BME280;46274;47.168;27.604;2023-02-28T18:16:21;101266.97;;;1.78;76.61
60427;BME280;46274;47.168;27.604;2023-02-28T18:22:25;101276.72;;;1.17;78.04
60427;BME280;46274;47.168;27.604;2023-02-28T18:28:28;101255.69;;;1.43;77.55
60427;BME280;46274;47.168;27.604;2023-02-28T18:34:29;101213.44;;;1.03;77.70
60427;BME280;46274;47.168;27.604;2023-02-28T18:40:32;101286.34;;;1.36;78.03
60427;BME280;46274;47.168;27.604;2023-02-28T18:46:34;101185.13;;;1.01;77.22
60427;BME280;46274;47.168;27.604;2023-02-28T18:52:38;101238.16;;;1.07;77.78
60427;BME280;46274;47.168;27.604;2023-02-28T18:58:41;101268.03;;;1.29;77.40
60427;BME280;46274;47.168;27.604;2023-02-28T19:04:43;101194.91;;;1.00;77.07
60427;BME280;46274;47.168;27.604;2023-02-28T19:10:45;101252.50;;;1.36;77.34
60427;BME280;46274;47.168;27.604;2023-02-28T19:16:47;101279.03;;;1.55;77.00
60427;BME280;46274;47.168;27.604;2023-02-28T19:22:50;101276.00;;;1.45;77.18
60427;BME280;46274;47.168;27.604;2023-02-28T19:28:52;101293.47;;;0.72;81.09
60427;BME280;46274;47.168;27.604;2023-02-28T19:34:55;101273.09;;;0.86;80.30
60427;BME280;46274;47.168;27.604;2023-02-28T19:41:04;101304.38;;;1.32;78.31
60427;BME280;46274;47.168;27.604;2023-02-28T19:47:07;101271.44;;;1.16;78.49
60427;BME280;46274;47.168;27.604;2023-02-28T19:53:08;101295.22;;;1.20;79.11
60427;BME280;46274;47.168;27.604;2023-02-28T19:59:10;101286.59;;;1.31;78.72
60427;BME280;46274;47.168;27.604;2023-02-28T20:05:26;101293.84;;;1.13;79.55
60427;BME280;46274;47.168;27.604;2023-02-28T20:11:28;101290.66;;;0.91;80.38
60427;BME280;46274;47.168;27.604;2023-02-28T20:17:31;101255.38;;;0.85;80.31
60427;BME280;46274;47.168;27.604;2023-02-28T20:23:33;101279.13;;;1.06;79.94
60427;BME280;46274;47.168;27.604;2023-02-28T20:29:36;101269.63;;;0.69;81.43
60427;BME280;46274;47.168;27.604;2023-02-28T20:35:38;101247.53;;;0.98;79.91
60427;BME280;46274;47.168;27.604;2023-02-28T20:41:41;101207.28;;;0.38;81.69
60427;BME280;46274;47.168;27.604;2023-02-28T20:47:42;101267.56;;;1.05;80.01
60427;BME280;46274;47.168;27.604;2023-02-28T20:53:46;101192.09;;;0.87;78.94
60427;BME280;46274;47.168;27.604;2023-02-28T20:59:49;101225.31;;;0.98;80.18
60427;BME280;46274;47.168;27.604;2023-02-28T21:05:58;101251.00;;;1.16;79.61
60427;BME280;46274;47.168;27.604;2023-02-28T21:12:01;101263.38;;;1.17;79.36
60427;BME280;46274;47.168;27.604;2023-02-28T21:18:03;101220.56;;;1.03;79.24
60427;BME280;46274;47.168;27.604;2023-02-28T21:24:05;101214.19;;;0.58;80.26
60427;BME280;46274;47.168;27.604;2023-02-28T21:30:10;100991.69;;;-0.98;80.14
60427;BME280;46274;47.168;27.604;2023-02-28T21:36:20;101250.19;;;0.82;79.63
60427;BME280;46274;47.168;27.604;2023-02-28T21:42:22;101199.25;;;0.71;78.73
60427;BME280;46274;47.168;27.604;2023-02-28T21:48:24;101217.97;;;0.54;80.26
60427;BME280;46274;47.168;27.604;2023-02-28T21:54:26;101231.41;;;0.52;80.12
60427;BME280;46274;47.168;27.604;2023-02-28T22:00:29;101185.59;;;0.28;80.24
60427;BME280;46274;47.168;27.604;2023-02-28T22:06:33;101250.75;;;0.56;80.41
60427;BME280;46274;47.168;27.604;2023-02-28T22:12:36;101220.38;;;0.42;79.96
60427;BME280;46274;47.168;27.604;2023-02-28T22:18:39;101246.22;;;0.58;79.63
60427;BME280;46274;47.168;27.604;2023-02-28T22:24:41;101220.25;;;0.28;79.71
60427;BME280;46274;47.168;27.604;2023-02-28T22:30:43;101225.13;;;0.20;79.52
60427;BME280;46274;47.168;27.604;2023-02-28T22:36:45;101260.78;;;0.35;79.24
60427;BME280;46274;47.168;27.604;2023-02-28T22:42:47;101246.78;;;0.14;79.52
60427;BME280;46274;47.168;27.604;2023-02-28T22:48:49;101265.13;;;0.03;79.97
60427;BME280;46274;47.168;27.604;2023-02-28T22:54:51;101240.84;;;-0.09;80.09
60427;BME280;46274;47.168;27.604;2023-02-28T23:00:53;101250.47;;;-0.06;80.43
60427;BME280;46274;47.168;27.604;2023-02-28T23:06:57;101264.81;;;-0.43;81.09
60427;BME280;46274;47.168;27.604;2023-02-28T23:12:59;101238.00;;;-0.58;81.13
60427;BME280;46274;47.168;27.604;2023-02-28T23:19:08;101238.31;;;-0.47;81.17
60427;BME280;46274;47.168;27.604;2023-02-28T23:25:14;101209.19;;;-0.50;80.62
60427;BME280;46274;47.168;27.604;2023-02-28T23:31:16;101236.16;;;-0.56;81.40
60427;BME280;46274;47.168;27.604;2023-02-28T23:37:18;101240.50;;;-0.72;82.50
60427;BME280;46274;47.168;27.604;2023-02-28T23:43:21;101243.72;;;-0.66;82.36
60427;BME280;46274;47.168;27.604;2023-02-28T23:49:24;101200.59;;;-0.55;81.88
60427;BME280;46274;47.168;27.604;2023-02-28T23:55:26;101213.69;;;-0.86;82.90
